Time;durP1;ratioP1;P1;durP2;ratioP2;P2;SDS_P1;SDS_P2;PMS_P1;PMS_P2;Temp;Humidity;BMP_temperature;BMP_pressure;BME280_temperature;BME280_humidity;BME280_pressure;Samples;Min_cycle;Max_cycle;Signal;HPM_P1;HPM_P2
2022/12/17 13:06:39;;;;;;;2.67;2.20;;;;;;;16.23;64.30;102237.31;20602812;28;20054;-89
2022/12/17 13:16:48;;;;;;;2.45;2.25;;;;;;;16.22;64.43;102247.22;20608930;28;20517;-86
2022/12/17 13:26:51;;;;;;;3.08;2.47;;;;;;;16.21;64.68;102223.97;20588445;28;20062;-90
2022/12/17 13:37:02;;;;;;;2.97;2.17;;;;;;;16.21;64.81;102233.84;20587335;28;20046;-86
2022/12/17 13:47:04;;;;;;;3.00;2.20;;;;;;;15.57;64.87;102140.88;20620636;28;20585;-86
2022/12/17 13:57:12;;;;;;;2.75;2.10;;;;;;;16.19;65.13;102235.75;20622246;28;20516;-85
2022/12/17 14:07:14;;;;;;;2.50;2.17;;;;;;;16.18;65.15;102236.72;20611030;28;20083;-87
2022/12/17 14:17:17;;;;;;;2.85;2.50;;;;;;;16.17;65.65;102253.81;20609051;28;20061;-88
2022/12/17 14:27:33;;;;;;;3.00;2.20;;;;;;;16.17;65.76;102265.44;20582271;28;20042;-90
2022/12/17 14:37:35;;;;;;;2.45;2.03;;;;;;;16.17;65.89;102268.13;20584015;28;20157;-93
2022/12/17 14:47:37;;;;;;;2.97;2.13;;;;;;;16.19;65.87;102285.00;20572631;28;20054;-89
2022/12/17 14:57:38;;;;;;;3.08;2.25;;;;;;;16.19;65.96;102278.75;20584696;28;20054;-89
2022/12/17 15:07:40;;;;;;;3.13;2.00;;;;;;;16.19;65.99;102273.38;20587662;28;20046;-90
2022/12/17 15:17:42;;;;;;;2.42;2.00;;;;;;;15.67;65.98;102208.34;20570248;28;20069;-91
2022/12/17 15:27:43;;;;;;;2.70;1.90;;;;;;;16.17;66.33;102296.78;20571608;28;20065;-89
2022/12/17 15:37:45;;;;;;;2.78;1.80;;;;;;;16.17;66.13;102304.84;20639552;28;20050;-87
2022/12/17 15:47:46;;;;;;;2.42;1.98;;;;;;;16.17;66.35;102319.16;20547147;28;20618;-90
2022/12/17 15:57:48;;;;;;;2.67;1.88;;;;;;;16.16;66.21;102316.56;20576603;28;20773;-90
2022/12/17 16:07:50;;;;;;;2.88;2.15;;;;;;;15.97;66.22;102290.78;20579957;28;20050;-85
2022/12/17 16:17:51;;;;;;;3.15;2.17;;;;;;;16.17;66.39;102329.03;20568019;28;20054;-94
2022/12/17 16:27:53;;;;;;;2.88;2.22;;;;;;;16.09;66.52;102319.59;20536162;28;20528;-91
2022/12/17 16:37:55;;;;;;;3.70;2.30;;;;;;;16.16;66.77;102343.41;20570450;28;20179;-87
2022/12/17 16:47:57;;;;;;;2.35;1.90;;;;;;;16.16;66.75;102352.38;20560384;28;20042;-89
2022/12/17 16:57:59;;;;;;;3.13;1.90;;;;;;;16.16;66.94;102343.41;20555260;28;20526;-88
2022/12/17 17:08:04;;;;;;;3.17;2.33;;;;;;;16.15;66.97;102345.25;20572285;28;20061;-87
2022/12/17 17:18:06;;;;;;;3.15;2.22;;;;;;;16.03;67.15;102325.34;20551709;28;20058;-91
2022/12/17 17:28:07;;;;;;;2.35;2.00;;;;;;;15.80;67.45;102299.78;20547065;28;20193;-89
2022/12/17 17:38:09;;;;;;;3.92;2.10;;;;;;;16.13;67.41;102355.22;20573479;28;20078;-91
2022/12/17 17:48:10;;;;;;;4.55;2.78;;;;;;;16.22;68.75;102360.06;20586154;28;20062;-88
2022/12/17 17:58:12;;;;;;;5.85;2.85;;;;;;;15.88;69.15;102291.28;20576548;28;20411;-86
2022/12/17 18:08:13;;;;;;;5.50;2.88;;;;;;;16.13;69.07;102347.16;20615376;28;20055;-88
2022/12/17 18:18:15;;;;;;;4.57;2.53;;;;;;;16.28;68.82;102364.19;20603886;28;20061;-86
2022/12/17 18:28:16;;;;;;;3.72;2.85;;;;;;;16.24;69.01;102370.72;20601508;28;20053;-88
2022/12/17 18:38:17;;;;;;;3.63;2.35;;;;;;;16.23;68.96;102377.91;20600668;28;20065;-87
2022/12/17 18:48:19;;;;;;;6.00;3.10;;;;;;;16.08;68.77;102373.41;20619850;28;22351;-89
2022/12/17 18:58:21;;;;;;;4.43;2.80;;;;;;;16.20;68.76;102415.72;20626488;28;20442;-89
2022/12/17 19:08:22;;;;;;;6.07;2.97;;;;;;;16.05;68.52;102393.28;20639705;28;20478;-89
2022/12/17 19:18:24;;;;;;;6.15;3.13;;;;;;;16.18;68.62;102411.38;20640231;28;20042;-89
2022/12/17 19:28:25;;;;;;;2.83;2.22;;;;;;;16.17;68.55;102409.63;20639916;28;20054;-89
2022/12/17 19:38:27;;;;;;;3.50;2.58;;;;;;;16.15;68.55;102420.50;20673748;28;20056;-88
2022/12/17 19:48:30;;;;;;;3.40;2.67;;;;;;;16.15;68.36;102436.63;20699638;28;20081;-88
2022/12/17 19:58:32;;;;;;;4.22;2.70;;;;;;;16.14;68.58;102442.06;20716901;28;20050;-89
2022/12/17 20:08:33;;;;;;;4.32;3.00;;;;;;;16.14;68.48;102445.63;20714270;28;20533;-89
2022/12/17 20:18:35;;;;;;;3.85;2.70;;;;;;;16.13;68.39;102435.84;20714861;28;20061;-89
2022/12/17 20:28:37;;;;;;;4.47;2.95;;;;;;;16.13;68.20;102451.06;20690614;28;20050;-89
2022/12/17 20:38:39;;;;;;;3.40;2.85;;;;;;;16.04;68.49;102436.34;20688263;28;20073;-89
2022/12/17 20:48:42;;;;;;;3.33;2.83;;;;;;;16.14;68.44;102450.13;20695224;28;20680;-89
2022/12/17 20:58:44;;;;;;;3.10;2.47;;;;;;;16.12;68.47;102454.72;20712677;28;20058;-90
2022/12/17 21:08:47;;;;;;;3.65;2.67;;;;;;;15.82;68.31;102410.66;20711669;28;20553;-89
2022/12/17 21:18:51;;;;;;;4.47;3.13;;;;;;;15.74;68.19;102403.03;20711475;28;20070;-90
2022/12/17 21:28:54;;;;;;;4.22;3.20;;;;;;;15.70;67.96;102409.50;20702667;28;20129;-89
2022/12/17 21:38:56;;;;;;;4.00;3.00;;;;;;;16.11;68.25;102478.00;20694595;28;20053;-89
2022/12/17 21:48:59;;;;;;;4.57;3.42;;;;;;;16.12;68.17;102486.97;20710763;28;20046;-89
2022/12/17 21:59:01;;;;;;;4.38;3.30;;;;;;;15.79;68.14;102437.69;20716155;28;20053;-89
2022/12/17 22:09:02;;;;;;;3.58;3.08;;;;;;;16.12;68.21;102478.91;20725102;28;20063;-90
2022/12/17 22:19:16;;;;;;;4.85;3.25;;;;;;;16.11;68.21;102488.75;20708849;28;20494;-89
2022/12/17 22:39:40;;;;;;;4.72;3.50;;;;;;;16.11;68.23;102517.47;20722548;28;20297;-89
2022/12/17 22:50:02;;;;;;;4.07;3.40;;;;;;;16.09;67.84;102510.34;20708026;28;20045;-89
2022/12/17 23:00:10;;;;;;;4.18;3.38;;;;;;;16.09;68.06;102510.34;20704456;28;20088;-89
2022/12/17 23:10:11;;;;;;;4.93;3.33;;;;;;;16.11;67.85;102512.09;20702145;28;20569;-90
2022/12/17 23:20:14;;;;;;;4.65;3.45;;;;;;;16.11;67.95;102518.31;20702477;28;20678;-89
2022/12/17 23:30:16;;;;;;;5.28;3.80;;;;;;;16.09;67.88;102510.34;20703301;28;20502;-89
2022/12/17 23:40:18;;;;;;;5.22;3.97;;;;;;;15.88;67.79;102474.81;20698349;28;20054;-89
2022/12/17 23:50:19;;;;;;;4.00;3.30;;;;;;;16.11;67.96;102512.09;20683561;28;20562;-91
